sensor_id;sensor_type;location;lat;lon;timestamp;P1;durP1;ratioP1;P2;durP2;ratioP2
46589;SDS011;32313;48.722;9.362;2023-07-13T00:01:47;3.50;;;2.70;;
46589;SDS011;32313;48.722;9.362;2023-07-13T00:04:19;3.00;;;2.57;;
46589;SDS011;32313;48.722;9.362;2023-07-13T00:06:46;3.53;;;2.57;;
46589;SDS011;32313;48.722;9.362;2023-07-13T00:09:13;3.13;;;2.60;;
46589;SDS011;32313;48.722;9.362;2023-07-13T00:11:39;4.67;;;2.43;;
46589;SDS011;32313;48.722;9.362;2023-07-13T00:14:06;3.10;;;2.80;;
46589;SDS011;32313;48.722;9.362;2023-07-13T00:16:33;2.97;;;2.60;;
46589;SDS011;32313;48.722;9.362;2023-07-13T00:19:00;4.00;;;2.60;;
46589;SDS011;32313;48.722;9.362;2023-07-13T00:21:26;4.47;;;2.40;;
46589;SDS011;32313;48.722;9.362;2023-07-13T00:23:52;3.13;;;2.53;;
46589;SDS011;32313;48.722;9.362;2023-07-13T00:26:18;3.13;;;2.57;;
46589;SDS011;32313;48.722;9.362;2023-07-13T00:28:44;2.30;;;2.10;;
46589;SDS011;32313;48.722;9.362;2023-07-13T00:31:10;3.03;;;2.60;;
46589;SDS011;32313;48.722;9.362;2023-07-13T00:33:37;4.37;;;2.43;;
46589;SDS011;32313;48.722;9.362;2023-07-13T00:36:02;3.80;;;2.47;;
46589;SDS011;32313;48.722;9.362;2023-07-13T00:38:29;3.67;;;2.30;;
46589;SDS011;32313;48.722;9.362;2023-07-13T00:40:55;2.53;;;2.20;;
46589;SDS011;32313;48.722;9.362;2023-07-13T00:43:22;2.83;;;2.40;;
46589;SDS011;32313;48.722;9.362;2023-07-13T00:48:18;3.30;;;2.10;;
46589;SDS011;32313;48.722;9.362;2023-07-13T00:50:47;2.33;;;2.13;;
46589;SDS011;32313;48.722;9.362;2023-07-13T00:53:16;4.40;;;2.00;;
46589;SDS011;32313;48.722;9.362;2023-07-13T00:55:43;4.33;;;1.83;;
46589;SDS011;32313;48.722;9.362;2023-07-13T00:58:10;2.20;;;2.00;;
46589;SDS011;32313;48.722;9.362;2023-07-13T01:00:36;2.00;;;1.80;;
46589;SDS011;32313;48.722;9.362;2023-07-13T01:03:03;3.07;;;2.10;;
46589;SDS011;32313;48.722;9.362;2023-07-13T01:05:30;2.93;;;1.90;;
46589;SDS011;32313;48.722;9.362;2023-07-13T01:07:59;3.43;;;2.00;;
46589;SDS011;32313;48.722;9.362;2023-07-13T01:10:26;2.67;;;2.10;;
46589;SDS011;32313;48.722;9.362;2023-07-13T01:12:52;2.77;;;2.23;;
46589;SDS011;32313;48.722;9.362;2023-07-13T01:15:34;4.47;;;2.20;;
46589;SDS011;32313;48.722;9.362;2023-07-13T01:18:07;4.13;;;2.23;;
46589;SDS011;32313;48.722;9.362;2023-07-13T01:20:36;3.03;;;2.30;;
46589;SDS011;32313;48.722;9.362;2023-07-13T01:23:07;5.00;;;2.67;;
46589;SDS011;32313;48.722;9.362;2023-07-13T01:25:35;3.67;;;2.30;;
46589;SDS011;32313;48.722;9.362;2023-07-13T01:28:03;2.57;;;2.30;;
46589;SDS011;32313;48.722;9.362;2023-07-13T01:30:30;3.27;;;2.30;;
46589;SDS011;32313;48.722;9.362;2023-07-13T01:32:57;2.73;;;2.23;;
46589;SDS011;32313;48.722;9.362;2023-07-13T01:35:25;3.93;;;2.33;;
46589;SDS011;32313;48.722;9.362;2023-07-13T01:37:52;2.60;;;2.30;;
46589;SDS011;32313;48.722;9.362;2023-07-13T01:40:18;2.50;;;2.30;;
46589;SDS011;32313;48.722;9.362;2023-07-13T01:42:44;2.70;;;2.27;;
46589;SDS011;32313;48.722;9.362;2023-07-13T01:45:10;3.07;;;2.40;;
46589;SDS011;32313;48.722;9.362;2023-07-13T01:47:36;2.40;;;1.93;;
46589;SDS011;32313;48.722;9.362;2023-07-13T01:50:01;2.27;;;2.07;;
46589;SDS011;32313;48.722;9.362;2023-07-13T01:52:27;3.80;;;2.23;;
46589;SDS011;32313;48.722;9.362;2023-07-13T01:54:53;3.60;;;2.67;;
46589;SDS011;32313;48.722;9.362;2023-07-13T01:57:19;3.53;;;2.60;;
46589;SDS011;32313;48.722;9.362;2023-07-13T01:59:44;2.87;;;2.37;;
46589;SDS011;32313;48.722;9.362;2023-07-13T02:02:10;2.63;;;2.17;;
46589;SDS011;32313;48.722;9.362;2023-07-13T02:04:36;5.87;;;2.53;;
46589;SDS011;32313;48.722;9.362;2023-07-13T02:07:01;3.37;;;2.47;;
46589;SDS011;32313;48.722;9.362;2023-07-13T02:09:28;2.50;;;2.30;;
46589;SDS011;32313;48.722;9.362;2023-07-13T02:11:53;3.30;;;2.60;;
46589;SDS011;32313;48.722;9.362;2023-07-13T02:14:19;3.33;;;2.40;;
46589;SDS011;32313;48.722;9.362;2023-07-13T02:16:45;4.70;;;2.67;;
46589;SDS011;32313;48.722;9.362;2023-07-13T02:19:11;3.67;;;2.70;;
46589;SDS011;32313;48.722;9.362;2023-07-13T02:21:36;3.83;;;2.60;;
46589;SDS011;32313;48.722;9.362;2023-07-13T02:24:02;2.20;;;2.00;;
46589;SDS011;32313;48.722;9.362;2023-07-13T02:26:28;3.23;;;2.70;;
46589;SDS011;32313;48.722;9.362;2023-07-13T02:28:54;3.80;;;2.43;;
46589;SDS011;32313;48.722;9.362;2023-07-13T02:31:19;2.90;;;2.40;;
46589;SDS011;32313;48.722;9.362;2023-07-13T02:33:45;3.43;;;2.47;;
46589;SDS011;32313;48.722;9.362;2023-07-13T02:36:11;2.70;;;2.50;;
46589;SDS011;32313;48.722;9.362;2023-07-13T02:38:39;4.30;;;2.47;;
46589;SDS011;32313;48.722;9.362;2023-07-13T02:41:05;3.03;;;2.50;;
46589;SDS011;32313;48.722;9.362;2023-07-13T02:43:33;3.63;;;2.47;;
46589;SDS011;32313;48.722;9.362;2023-07-13T02:45:59;6.27;;;2.33;;
46589;SDS011;32313;48.722;9.362;2023-07-13T02:48:35;2.63;;;2.20;;
46589;SDS011;32313;48.722;9.362;2023-07-13T02:51:02;3.50;;;2.57;;
46589;SDS011;32313;48.722;9.362;2023-07-13T02:53:28;3.97;;;2.73;;
46589;SDS011;32313;48.722;9.362;2023-07-13T02:55:54;4.17;;;2.60;;
46589;SDS011;32313;48.722;9.362;2023-07-13T02:58:20;3.93;;;2.67;;
46589;SDS011;32313;48.722;9.362;2023-07-13T03:00:46;3.63;;;2.37;;
46589;SDS011;32313;48.722;9.362;2023-07-13T03:03:13;3.33;;;2.80;;
46589;SDS011;32313;48.722;9.362;2023-07-13T03:05:40;2.50;;;2.30;;
46589;SDS011;32313;48.722;9.362;2023-07-13T03:08:09;6.03;;;2.97;;
46589;SDS011;32313;48.722;9.362;2023-07-13T03:10:35;4.03;;;3.30;;
46589;SDS011;32313;48.722;9.362;2023-07-13T03:13:03;2.80;;;2.60;;
46589;SDS011;32313;48.722;9.362;2023-07-13T03:15:28;3.00;;;2.80;;
46589;SDS011;32313;48.722;9.362;2023-07-13T03:17:57;4.20;;;2.83;;
46589;SDS011;32313;48.722;9.362;2023-07-13T03:20:22;3.07;;;2.60;;
46589;SDS011;32313;48.722;9.362;2023-07-13T03:22:48;3.87;;;2.87;;
46589;SDS011;32313;48.722;9.362;2023-07-13T03:25:16;3.10;;;2.70;;
46589;SDS011;32313;48.722;9.362;2023-07-13T03:27:42;4.73;;;3.17;;
46589;SDS011;32313;48.722;9.362;2023-07-13T03:30:08;3.80;;;2.60;;
46589;SDS011;32313;48.722;9.362;2023-07-13T03:32:35;3.27;;;2.90;;
46589;SDS011;32313;48.722;9.362;2023-07-13T03:35:00;3.63;;;2.90;;
46589;SDS011;32313;48.722;9.362;2023-07-13T03:37:28;5.03;;;3.03;;
46589;SDS011;32313;48.722;9.362;2023-07-13T03:39:54;4.10;;;2.90;;
46589;SDS011;32313;48.722;9.362;2023-07-13T03:42:20;3.27;;;2.90;;
46589;SDS011;32313;48.722;9.362;2023-07-13T03:44:45;3.53;;;2.90;;
46589;SDS011;32313;48.722;9.362;2023-07-13T03:47:17;3.27;;;2.97;;
46589;SDS011;32313;48.722;9.362;2023-07-13T03:49:44;3.80;;;2.93;;
46589;SDS011;32313;48.722;9.362;2023-07-13T03:52:11;5.27;;;3.07;;
46589;SDS011;32313;48.722;9.362;2023-07-13T03:54:36;3.37;;;3.07;;
46589;SDS011;32313;48.722;9.362;2023-07-13T03:57:02;3.83;;;2.80;;
46589;SDS011;32313;48.722;9.362;2023-07-13T03:59:31;3.57;;;2.90;;
46589;SDS011;32313;48.722;9.362;2023-07-13T04:01:56;3.07;;;2.70;;
46589;SDS011;32313;48.722;9.362;2023-07-13T04:04:22;3.40;;;2.90;;
46589;SDS011;32313;48.722;9.362;2023-07-13T04:06:48;5.87;;;2.83;;
46589;SDS011;32313;48.722;9.362;2023-07-13T04:09:13;4.00;;;2.67;;
46589;SDS011;32313;48.722;9.362;2023-07-13T04:11:40;4.87;;;2.90;;
46589;SDS011;32313;48.722;9.362;2023-07-13T04:14:06;3.57;;;2.53;;
46589;SDS011;32313;48.722;9.362;2023-07-13T04:16:33;4.77;;;3.10;;
46589;SDS011;32313;48.722;9.362;2023-07-13T04:18:58;5.70;;;2.63;;
46589;SDS011;32313;48.722;9.362;2023-07-13T04:21:25;4.50;;;2.90;;
46589;SDS011;32313;48.722;9.362;2023-07-13T04:23:53;4.23;;;2.70;;
46589;SDS011;32313;48.722;9.362;2023-07-13T04:26:19;3.80;;;2.90;;
46589;SDS011;32313;48.722;9.362;2023-07-13T04:28:48;5.10;;;2.83;;
46589;SDS011;32313;48.722;9.362;2023-07-13T04:31:15;3.30;;;3.00;;
46589;SDS011;32313;48.722;9.362;2023-07-13T04:33:42;5.30;;;2.97;;
46589;SDS011;32313;48.722;9.362;2023-07-13T04:36:08;6.57;;;3.00;;
46589;SDS011;32313;48.722;9.362;2023-07-13T04:38:34;5.30;;;2.67;;
46589;SDS011;32313;48.722;9.362;2023-07-13T04:41:02;5.27;;;3.13;;
46589;SDS011;32313;48.722;9.362;2023-07-13T04:43:29;9.33;;;3.07;;
46589;SDS011;32313;48.722;9.362;2023-07-13T04:45:57;10.83;;;3.47;;
46589;SDS011;32313;48.722;9.362;2023-07-13T04:48:28;3.70;;;2.97;;
46589;SDS011;32313;48.722;9.362;2023-07-13T04:50:54;8.67;;;2.97;;
46589;SDS011;32313;48.722;9.362;2023-07-13T04:53:22;7.33;;;3.00;;
46589;SDS011;32313;48.722;9.362;2023-07-13T04:55:47;5.57;;;2.70;;
46589;SDS011;32313;48.722;9.362;2023-07-13T04:58:13;7.97;;;3.40;;
46589;SDS011;32313;48.722;9.362;2023-07-13T05:00:39;5.27;;;3.10;;
46589;SDS011;32313;48.722;9.362;2023-07-13T05:03:04;5.57;;;2.80;;
46589;SDS011;32313;48.722;9.362;2023-07-13T05:05:30;10.10;;;2.80;;
46589;SDS011;32313;48.722;9.362;2023-07-13T05:07:56;8.93;;;3.23;;
46589;SDS011;32313;48.722;9.362;2023-07-13T05:10:22;4.80;;;2.80;;
46589;SDS011;32313;48.722;9.362;2023-07-13T05:12:48;6.33;;;3.33;;
46589;SDS011;32313;48.722;9.362;2023-07-13T05:15:14;5.73;;;3.00;;
46589;SDS011;32313;48.722;9.362;2023-07-13T05:17:41;7.13;;;3.60;;
46589;SDS011;32313;48.722;9.362;2023-07-13T05:20:07;6.53;;;3.40;;
46589;SDS011;32313;48.722;9.362;2023-07-13T05:22:34;10.13;;;3.57;;
46589;SDS011;32313;48.722;9.362;2023-07-13T05:25:00;12.63;;;3.60;;
46589;SDS011;32313;48.722;9.362;2023-07-13T05:27:27;6.60;;;3.60;;
46589;SDS011;32313;48.722;9.362;2023-07-13T05:29:52;9.33;;;3.90;;
46589;SDS011;32313;48.722;9.362;2023-07-13T05:32:18;16.33;;;3.87;;
46589;SDS011;32313;48.722;9.362;2023-07-13T05:34:44;12.47;;;3.93;;
46589;SDS011;32313;48.722;9.362;2023-07-13T05:37:10;10.70;;;4.00;;
46589;SDS011;32313;48.722;9.362;2023-07-13T05:39:35;12.00;;;3.93;;
46589;SDS011;32313;48.722;9.362;2023-07-13T05:42:01;12.07;;;4.23;;
46589;SDS011;32313;48.722;9.362;2023-07-13T05:44:27;6.40;;;3.60;;
46589;SDS011;32313;48.722;9.362;2023-07-13T05:46:53;5.63;;;2.90;;
46589;SDS011;32313;48.722;9.362;2023-07-13T05:49:21;6.63;;;3.27;;
46589;SDS011;32313;48.722;9.362;2023-07-13T05:51:46;10.13;;;3.57;;
46589;SDS011;32313;48.722;9.362;2023-07-13T05:54:12;7.03;;;3.30;;
46589;SDS011;32313;48.722;9.362;2023-07-13T05:56:38;11.20;;;3.67;;
46589;SDS011;32313;48.722;9.362;2023-07-13T05:59:03;10.50;;;3.17;;
46589;SDS011;32313;48.722;9.362;2023-07-13T06:01:29;6.83;;;3.10;;
46589;SDS011;32313;48.722;9.362;2023-07-13T06:03:55;6.03;;;2.90;;
46589;SDS011;32313;48.722;9.362;2023-07-13T06:06:20;5.17;;;3.33;;
46589;SDS011;32313;48.722;9.362;2023-07-13T06:08:46;8.07;;;3.20;;
46589;SDS011;32313;48.722;9.362;2023-07-13T06:13:42;9.43;;;3.20;;
46589;SDS011;32313;48.722;9.362;2023-07-13T06:16:08;6.67;;;3.13;;
46589;SDS011;32313;48.722;9.362;2023-07-13T06:18:34;7.33;;;2.80;;
46589;SDS011;32313;48.722;9.362;2023-07-13T06:21:15;6.30;;;2.93;;
46589;SDS011;32313;48.722;9.362;2023-07-13T06:23:43;5.73;;;2.80;;
46589;SDS011;32313;48.722;9.362;2023-07-13T06:26:10;4.80;;;2.50;;
46589;SDS011;32313;48.722;9.362;2023-07-13T06:28:37;4.27;;;2.97;;
46589;SDS011;32313;48.722;9.362;2023-07-13T06:31:05;3.40;;;2.77;;
46589;SDS011;32313;48.722;9.362;2023-07-13T06:33:32;3.87;;;2.67;;
46589;SDS011;32313;48.722;9.362;2023-07-13T06:35:58;3.10;;;2.77;;
46589;SDS011;32313;48.722;9.362;2023-07-13T06:38:24;5.00;;;2.40;;
46589;SDS011;32313;48.722;9.362;2023-07-13T06:40:50;3.47;;;2.33;;
46589;SDS011;32313;48.722;9.362;2023-07-13T06:43:16;3.30;;;2.40;;
46589;SDS011;32313;48.722;9.362;2023-07-13T06:45:44;3.00;;;2.53;;
46589;SDS011;32313;48.722;9.362;2023-07-13T06:48:13;6.03;;;3.00;;
46589;SDS011;32313;48.722;9.362;2023-07-13T06:50:39;3.50;;;2.30;;
46589;SDS011;32313;48.722;9.362;2023-07-13T06:53:06;4.20;;;2.40;;
46589;SDS011;32313;48.722;9.362;2023-07-13T06:55:31;2.57;;;2.17;;
46589;SDS011;32313;48.722;9.362;2023-07-13T06:57:57;3.53;;;1.80;;
46589;SDS011;32313;48.722;9.362;2023-07-13T07:00:23;3.63;;;2.20;;
46589;SDS011;32313;48.722;9.362;2023-07-13T07:02:49;2.40;;;1.67;;
46589;SDS011;32313;48.722;9.362;2023-07-13T07:05:14;3.80;;;2.00;;
46589;SDS011;32313;48.722;9.362;2023-07-13T07:07:40;4.43;;;2.03;;
46589;SDS011;32313;48.722;9.362;2023-07-13T07:10:06;4.03;;;1.63;;
46589;SDS011;32313;48.722;9.362;2023-07-13T07:12:32;3.70;;;1.80;;
46589;SDS011;32313;48.722;9.362;2023-07-13T07:14:58;2.17;;;1.58;;
46589;SDS011;32313;48.722;9.362;2023-07-13T07:17:23;5.60;;;2.03;;
46589;SDS011;32313;48.722;9.362;2023-07-13T07:19:50;2.15;;;1.80;;
46589;SDS011;32313;48.722;9.362;2023-07-13T07:22:16;3.58;;;1.70;;
46589;SDS011;32313;48.722;9.362;2023-07-13T07:24:41;1.70;;;1.60;;
46589;SDS011;32313;48.722;9.362;2023-07-13T07:27:07;2.70;;;1.52;;
46589;SDS011;32313;48.722;9.362;2023-07-13T07:29:33;3.33;;;1.67;;
46589;SDS011;32313;48.722;9.362;2023-07-13T07:31:59;3.70;;;1.80;;
46589;SDS011;32313;48.722;9.362;2023-07-13T07:34:25;3.55;;;1.48;;
46589;SDS011;32313;48.722;9.362;2023-07-13T07:36:51;4.95;;;1.85;;
46589;SDS011;32313;48.722;9.362;2023-07-13T07:39:16;2.63;;;1.67;;
46589;SDS011;32313;48.722;9.362;2023-07-13T07:41:42;2.80;;;1.77;;
46589;SDS011;32313;48.722;9.362;2023-07-13T07:44:08;3.95;;;1.88;;
46589;SDS011;32313;48.722;9.362;2023-07-13T07:46:35;4.00;;;1.55;;
46589;SDS011;32313;48.722;9.362;2023-07-13T07:49:00;2.25;;;1.60;;
46589;SDS011;32313;48.722;9.362;2023-07-13T07:51:26;3.13;;;1.63;;
46589;SDS011;32313;48.722;9.362;2023-07-13T07:53:52;2.88;;;1.50;;
46589;SDS011;32313;48.722;9.362;2023-07-13T07:56:18;2.95;;;1.55;;
46589;SDS011;32313;48.722;9.362;2023-07-13T07:58:43;2.53;;;1.63;;
46589;SDS011;32313;48.722;9.362;2023-07-13T08:01:09;4.35;;;1.60;;
46589;SDS011;32313;48.722;9.362;2023-07-13T08:03:35;3.47;;;1.50;;
46589;SDS011;32313;48.722;9.362;2023-07-13T08:06:01;3.47;;;1.45;;
46589;SDS011;32313;48.722;9.362;2023-07-13T08:08:27;3.78;;;1.50;;
46589;SDS011;32313;48.722;9.362;2023-07-13T08:10:53;4.22;;;1.63;;
46589;SDS011;32313;48.722;9.362;2023-07-13T08:13:19;2.08;;;1.30;;
46589;SDS011;32313;48.722;9.362;2023-07-13T08:15:45;2.63;;;1.60;;
46589;SDS011;32313;48.722;9.362;2023-07-13T08:18:11;4.00;;;1.27;;
46589;SDS011;32313;48.722;9.362;2023-07-13T08:20:37;5.05;;;1.60;;
46589;SDS011;32313;48.722;9.362;2023-07-13T08:23:04;4.68;;;1.50;;
46589;SDS011;32313;48.722;9.362;2023-07-13T08:25:29;4.10;;;1.65;;
46589;SDS011;32313;48.722;9.362;2023-07-13T08:27:55;2.60;;;1.50;;
46589;SDS011;32313;48.722;9.362;2023-07-13T08:30:21;2.70;;;1.42;;
46589;SDS011;32313;48.722;9.362;2023-07-13T08:32:46;2.80;;;1.38;;
46589;SDS011;32313;48.722;9.362;2023-07-13T08:35:12;3.08;;;1.17;;
46589;SDS011;32313;48.722;9.362;2023-07-13T08:37:38;3.58;;;1.45;;
46589;SDS011;32313;48.722;9.362;2023-07-13T08:40:04;1.50;;;1.40;;
46589;SDS011;32313;48.722;9.362;2023-07-13T08:42:32;4.00;;;1.42;;
46589;SDS011;32313;48.722;9.362;2023-07-13T08:45:15;3.45;;;1.42;;
46589;SDS011;32313;48.722;9.362;2023-07-13T08:47:49;3.70;;;1.50;;
46589;SDS011;32313;48.722;9.362;2023-07-13T08:50:19;2.42;;;1.50;;
46589;SDS011;32313;48.722;9.362;2023-07-13T08:52:49;3.17;;;1.50;;
46589;SDS011;32313;48.722;9.362;2023-07-13T08:55:18;1.75;;;1.35;;
46589;SDS011;32313;48.722;9.362;2023-07-13T08:57:50;3.40;;;1.58;;
46589;SDS011;32313;48.722;9.362;2023-07-13T09:00:31;2.92;;;1.40;;
46589;SDS011;32313;48.722;9.362;2023-07-13T09:03:02;2.30;;;1.30;;
46589;SDS011;32313;48.722;9.362;2023-07-13T09:05:38;5.45;;;1.60;;
46589;SDS011;32313;48.722;9.362;2023-07-13T09:08:12;2.50;;;1.50;;
46589;SDS011;32313;48.722;9.362;2023-07-13T09:11:23;2.72;;;1.20;;
46589;SDS011;32313;48.722;9.362;2023-07-13T09:16:29;5.13;;;1.70;;
46589;SDS011;32313;48.722;9.362;2023-07-13T09:18:56;2.40;;;1.50;;
46589;SDS011;32313;48.722;9.362;2023-07-13T09:21:35;2.63;;;1.45;;
46589;SDS011;32313;48.722;9.362;2023-07-13T09:27:17;4.38;;;1.50;;
46589;SDS011;32313;48.722;9.362;2023-07-13T09:29:48;2.53;;;1.40;;
46589;SDS011;32313;48.722;9.362;2023-07-13T09:32:34;2.17;;;1.35;;
46589;SDS011;32313;48.722;9.362;2023-07-13T09:35:05;6.25;;;1.80;;
46589;SDS011;32313;48.722;9.362;2023-07-13T09:37:36;3.58;;;1.67;;
46589;SDS011;32313;48.722;9.362;2023-07-13T09:40:03;4.78;;;1.42;;
46589;SDS011;32313;48.722;9.362;2023-07-13T09:42:34;2.65;;;1.35;;
46589;SDS011;32313;48.722;9.362;2023-07-13T09:45:01;2.28;;;1.40;;
46589;SDS011;32313;48.722;9.362;2023-07-13T09:47:29;4.55;;;1.50;;
46589;SDS011;32313;48.722;9.362;2023-07-13T09:50:00;2.40;;;1.27;;
46589;SDS011;32313;48.722;9.362;2023-07-13T09:52:38;3.28;;;1.50;;
46589;SDS011;32313;48.722;9.362;2023-07-13T09:57:57;2.78;;;1.40;;
46589;SDS011;32313;48.722;9.362;2023-07-13T10:00:29;2.08;;;1.35;;
46589;SDS011;32313;48.722;9.362;2023-07-13T10:02:59;3.97;;;1.25;;
46589;SDS011;32313;48.722;9.362;2023-07-13T10:05:41;3.03;;;1.40;;
46589;SDS011;32313;48.722;9.362;2023-07-13T10:08:18;3.22;;;1.42;;
46589;SDS011;32313;48.722;9.362;2023-07-13T10:10:46;3.15;;;1.35;;
46589;SDS011;32313;48.722;9.362;2023-07-13T10:13:28;2.97;;;1.55;;
46589;SDS011;32313;48.722;9.362;2023-07-13T10:16:01;3.05;;;1.50;;
46589;SDS011;32313;48.722;9.362;2023-07-13T10:18:31;3.72;;;1.50;;
46589;SDS011;32313;48.722;9.362;2023-07-13T10:21:21;3.55;;;1.70;;
46589;SDS011;32313;48.722;9.362;2023-07-13T10:23:57;1.50;;;1.40;;
46589;SDS011;32313;48.722;9.362;2023-07-13T10:26:31;4.35;;;1.65;;
46589;SDS011;32313;48.722;9.362;2023-07-13T10:29:02;3.10;;;1.48;;
46589;SDS011;32313;48.722;9.362;2023-07-13T10:31:33;2.00;;;1.30;;
46589;SDS011;32313;48.722;9.362;2023-07-13T10:34:02;3.58;;;1.70;;
46589;SDS011;32313;48.722;9.362;2023-07-13T10:36:30;2.13;;;1.30;;
46589;SDS011;32313;48.722;9.362;2023-07-13T10:38:57;3.33;;;1.27;;
46589;SDS011;32313;48.722;9.362;2023-07-13T10:41:26;3.47;;;1.55;;
46589;SDS011;32313;48.722;9.362;2023-07-13T10:43:55;4.68;;;1.60;;
46589;SDS011;32313;48.722;9.362;2023-07-13T10:46:22;3.05;;;1.58;;
46589;SDS011;32313;48.722;9.362;2023-07-13T10:48:56;2.83;;;1.20;;
46589;SDS011;32313;48.722;9.362;2023-07-13T10:51:32;2.20;;;1.58;;
46589;SDS011;32313;48.722;9.362;2023-07-13T10:56:41;4.30;;;1.60;;
46589;SDS011;32313;48.722;9.362;2023-07-13T11:04:13;2.65;;;1.60;;
46589;SDS011;32313;48.722;9.362;2023-07-13T11:06:40;2.67;;;1.40;;
46589;SDS011;32313;48.722;9.362;2023-07-13T11:09:24;2.97;;;1.60;;
46589;SDS011;32313;48.722;9.362;2023-07-13T11:12:08;3.15;;;1.35;;
46589;SDS011;32313;48.722;9.362;2023-07-13T11:17:23;2.83;;;1.63;;
46589;SDS011;32313;48.722;9.362;2023-07-13T11:19:52;2.42;;;1.58;;
46589;SDS011;32313;48.722;9.362;2023-07-13T11:22:26;3.47;;;1.40;;
46589;SDS011;32313;48.722;9.362;2023-07-13T11:30:36;2.97;;;1.42;;
46589;SDS011;32313;48.722;9.362;2023-07-13T11:41:26;2.38;;;1.40;;
46589;SDS011;32313;48.722;9.362;2023-07-13T11:43:56;1.95;;;1.25;;
46589;SDS011;32313;48.722;9.362;2023-07-13T11:46:36;2.67;;;1.50;;
46589;SDS011;32313;48.722;9.362;2023-07-13T11:49:04;2.53;;;1.35;;
46589;SDS011;32313;48.722;9.362;2023-07-13T11:51:33;1.35;;;1.20;;
46589;SDS011;32313;48.722;9.362;2023-07-13T11:54:05;2.60;;;1.80;;
46589;SDS011;32313;48.722;9.362;2023-07-13T11:56:37;3.58;;;1.50;;
46589;SDS011;32313;48.722;9.362;2023-07-13T11:59:04;3.53;;;1.70;;
46589;SDS011;32313;48.722;9.362;2023-07-13T12:01:32;1.70;;;1.27;;
46589;SDS011;32313;48.722;9.362;2023-07-13T12:04:01;1.40;;;1.30;;
46589;SDS011;32313;48.722;9.362;2023-07-13T12:06:29;3.00;;;1.55;;
46589;SDS011;32313;48.722;9.362;2023-07-13T12:09:00;3.20;;;1.40;;
46589;SDS011;32313;48.722;9.362;2023-07-13T12:11:28;2.92;;;1.42;;
46589;SDS011;32313;48.722;9.362;2023-07-13T12:13:54;2.22;;;1.35;;
46589;SDS011;32313;48.722;9.362;2023-07-13T12:18:55;2.58;;;1.50;;
46589;SDS011;32313;48.722;9.362;2023-07-13T12:21:24;4.25;;;1.45;;
46589;SDS011;32313;48.722;9.362;2023-07-13T12:23:58;3.60;;;1.45;;
46589;SDS011;32313;48.722;9.362;2023-07-13T12:26:27;1.92;;;1.30;;
46589;SDS011;32313;48.722;9.362;2023-07-13T12:28:55;3.00;;;1.63;;
46589;SDS011;32313;48.722;9.362;2023-07-13T12:33:59;2.40;;;1.30;;
46589;SDS011;32313;48.722;9.362;2023-07-13T12:36:29;4.18;;;1.52;;
46589;SDS011;32313;48.722;9.362;2023-07-13T12:38:59;2.08;;;1.30;;
46589;SDS011;32313;48.722;9.362;2023-07-13T12:41:29;1.85;;;1.17;;
46589;SDS011;32313;48.722;9.362;2023-07-13T12:43:55;5.07;;;1.50;;
46589;SDS011;32313;48.722;9.362;2023-07-13T12:46:23;2.85;;;1.30;;
46589;SDS011;32313;48.722;9.362;2023-07-13T12:48:53;1.83;;;1.20;;
46589;SDS011;32313;48.722;9.362;2023-07-13T12:51:24;3.00;;;1.45;;
46589;SDS011;32313;48.722;9.362;2023-07-13T12:54:15;1.20;;;1.10;;
46589;SDS011;32313;48.722;9.362;2023-07-13T12:56:40;3.55;;;1.40;;
46589;SDS011;32313;48.722;9.362;2023-07-13T12:59:08;2.20;;;1.50;;
46589;SDS011;32313;48.722;9.362;2023-07-13T13:01:42;3.92;;;1.60;;
46589;SDS011;32313;48.722;9.362;2023-07-13T13:04:08;1.98;;;1.20;;
46589;SDS011;32313;48.722;9.362;2023-07-13T13:06:36;2.95;;;1.35;;
46589;SDS011;32313;48.722;9.362;2023-07-13T13:09:03;2.92;;;1.50;;
46589;SDS011;32313;48.722;9.362;2023-07-13T13:11:29;1.70;;;1.20;;
46589;SDS011;32313;48.722;9.362;2023-07-13T13:13:56;3.88;;;1.50;;
46589;SDS011;32313;48.722;9.362;2023-07-13T13:16:23;2.28;;;1.33;;
46589;SDS011;32313;48.722;9.362;2023-07-13T13:18:50;2.55;;;1.50;;
46589;SDS011;32313;48.722;9.362;2023-07-13T13:21:17;1.98;;;1.40;;
46589;SDS011;32313;48.722;9.362;2023-07-13T13:23:44;2.85;;;1.45;;
46589;SDS011;32313;48.722;9.362;2023-07-13T13:26:11;2.17;;;1.40;;
46589;SDS011;32313;48.722;9.362;2023-07-13T13:28:38;3.40;;;1.50;;
46589;SDS011;32313;48.722;9.362;2023-07-13T13:31:04;3.50;;;1.60;;
46589;SDS011;32313;48.722;9.362;2023-07-13T13:33:30;1.77;;;1.20;;
46589;SDS011;32313;48.722;9.362;2023-07-13T13:35:56;2.42;;;1.13;;
46589;SDS011;32313;48.722;9.362;2023-07-13T13:38:26;3.13;;;1.52;;
46589;SDS011;32313;48.722;9.362;2023-07-13T13:40:52;3.30;;;1.45;;
46589;SDS011;32313;48.722;9.362;2023-07-13T13:43:22;3.50;;;1.60;;
46589;SDS011;32313;48.722;9.362;2023-07-13T13:45:53;3.03;;;1.52;;
46589;SDS011;32313;48.722;9.362;2023-07-13T13:48:24;3.00;;;1.27;;
46589;SDS011;32313;48.722;9.362;2023-07-13T13:51:06;1.88;;;1.55;;
46589;SDS011;32313;48.722;9.362;2023-07-13T13:53:40;3.17;;;1.40;;
46589;SDS011;32313;48.722;9.362;2023-07-13T13:56:05;4.72;;;1.45;;
46589;SDS011;32313;48.722;9.362;2023-07-13T13:58:32;1.98;;;1.30;;
46589;SDS011;32313;48.722;9.362;2023-07-13T14:00:57;1.20;;;1.10;;
46589;SDS011;32313;48.722;9.362;2023-07-13T14:03:23;4.10;;;1.63;;
46589;SDS011;32313;48.722;9.362;2023-07-13T14:05:49;3.38;;;1.50;;
46589;SDS011;32313;48.722;9.362;2023-07-13T14:08:16;2.42;;;1.33;;
46589;SDS011;32313;48.722;9.362;2023-07-13T14:10:48;2.17;;;1.27;;
46589;SDS011;32313;48.722;9.362;2023-07-13T14:13:21;2.67;;;1.40;;
46589;SDS011;32313;48.722;9.362;2023-07-13T14:15:51;3.60;;;1.40;;
46589;SDS011;32313;48.722;9.362;2023-07-13T14:18:18;3.85;;;1.40;;
46589;SDS011;32313;48.722;9.362;2023-07-13T14:20:44;1.65;;;1.40;;
46589;SDS011;32313;48.722;9.362;2023-07-13T14:23:12;2.00;;;1.60;;
46589;SDS011;32313;48.722;9.362;2023-07-13T14:25:41;3.22;;;1.60;;
46589;SDS011;32313;48.722;9.362;2023-07-13T14:30:39;4.03;;;1.45;;
46589;SDS011;32313;48.722;9.362;2023-07-13T14:33:08;5.13;;;1.50;;
46589;SDS011;32313;48.722;9.362;2023-07-13T14:35:35;1.40;;;1.30;;
46589;SDS011;32313;48.722;9.362;2023-07-13T14:38:00;1.90;;;1.45;;
46589;SDS011;32313;48.722;9.362;2023-07-13T14:40:28;4.50;;;1.52;;
46589;SDS011;32313;48.722;9.362;2023-07-13T14:42:55;1.55;;;1.25;;
46589;SDS011;32313;48.722;9.362;2023-07-13T14:45:22;2.97;;;1.45;;
46589;SDS011;32313;48.722;9.362;2023-07-13T14:47:48;2.55;;;1.45;;
46589;SDS011;32313;48.722;9.362;2023-07-13T14:52:45;3.80;;;1.80;;
46589;SDS011;32313;48.722;9.362;2023-07-13T14:55:16;2.83;;;1.45;;
46589;SDS011;32313;48.722;9.362;2023-07-13T15:01:31;2.90;;;1.50;;
46589;SDS011;32313;48.722;9.362;2023-07-13T15:03:57;3.20;;;2.00;;
46589;SDS011;32313;48.722;9.362;2023-07-13T15:06:23;4.00;;;1.45;;
46589;SDS011;32313;48.722;9.362;2023-07-13T15:08:49;3.60;;;1.55;;
46589;SDS011;32313;48.722;9.362;2023-07-13T15:11:15;1.85;;;1.42;;
46589;SDS011;32313;48.722;9.362;2023-07-13T15:13:41;2.55;;;1.58;;
46589;SDS011;32313;48.722;9.362;2023-07-13T15:16:17;3.20;;;1.55;;
46589;SDS011;32313;48.722;9.362;2023-07-13T15:18:47;4.47;;;1.60;;
46589;SDS011;32313;48.722;9.362;2023-07-13T15:21:14;2.75;;;1.40;;
46589;SDS011;32313;48.722;9.362;2023-07-13T15:23:45;2.83;;;1.20;;
46589;SDS011;32313;48.722;9.362;2023-07-13T15:26:15;1.60;;;1.35;;
46589;SDS011;32313;48.722;9.362;2023-07-13T15:28:44;2.60;;;1.30;;
46589;SDS011;32313;48.722;9.362;2023-07-13T15:31:17;3.83;;;1.50;;
46589;SDS011;32313;48.722;9.362;2023-07-13T15:33:48;2.78;;;1.33;;
46589;SDS011;32313;48.722;9.362;2023-07-13T15:36:19;5.57;;;1.50;;
46589;SDS011;32313;48.722;9.362;2023-07-13T15:38:45;2.70;;;1.30;;
46589;SDS011;32313;48.722;9.362;2023-07-13T15:43:41;4.43;;;1.42;;
46589;SDS011;32313;48.722;9.362;2023-07-13T15:46:07;4.03;;;1.40;;
46589;SDS011;32313;48.722;9.362;2023-07-13T15:48:33;3.25;;;1.65;;